Time;durP1;ratioP1;P1;durP2;ratioP2;P2;SDS_P1;SDS_P2;PMS_P1;PMS_P2;Temp;Humidity;BMP_temperature;BMP_pressure;BME280_temperature;BME280_humidity;BME280_pressure;Samples;Min_cycle;Max_cycle;Signal;HPM_P1;HPM_P2
2023/04/19 00:02:08;;;;;;;18.30;16.35;;;;;;;10.99;62.29;102551.28;5093091;28;20063;-67
2023/04/19 00:04:34;;;;;;;18.52;16.52;;;;;;;10.99;62.17;102550.44;5108259;28;20031;-67
2023/04/19 00:06:59;;;;;;;19.33;17.00;;;;;;;10.90;62.49;102547.03;5113143;28;20073;-67
2023/04/19 00:09:24;;;;;;;19.00;16.98;;;;;;;10.94;62.20;102542.75;5090439;28;20086;-67
2023/04/19 00:11:50;;;;;;;18.83;16.90;;;;;;;10.96;62.69;102539.75;5090770;28;20093;-67
2023/04/19 00:14:16;;;;;;;18.85;16.85;;;;;;;10.94;62.21;102536.34;5084878;28;20416;-67
2023/04/19 00:16:41;;;;;;;19.00;17.10;;;;;;;10.93;62.43;102538.25;5072815;28;20082;-68
2023/04/19 00:19:06;;;;;;;19.17;16.90;;;;;;;10.95;62.08;102530.56;5072120;28;20024;-67
2023/04/19 00:21:32;;;;;;;18.33;16.45;;;;;;;10.96;62.18;102532.25;5071172;28;20664;-67
2023/04/19 00:23:57;;;;;;;19.65;17.55;;;;;;;10.98;62.10;102532.06;5072083;28;20078;-66
2023/04/19 00:26:22;;;;;;;18.75;16.80;;;;;;;10.99;62.07;102533.75;5087129;28;20040;-67
2023/04/19 00:28:47;;;;;;;18.48;16.48;;;;;;;11.01;61.88;102529.72;5090305;28;20039;-67
2023/04/19 00:31:13;;;;;;;18.40;16.58;;;;;;;11.04;61.99;102536.75;5085154;28;20031;-67
2023/04/19 00:33:38;;;;;;;19.73;17.63;;;;;;;11.01;62.12;102535.25;5071865;28;20028;-67
2023/04/19 00:36:03;;;;;;;19.58;17.58;;;;;;;11.04;62.03;102528.41;5072713;28;20039;-64
2023/04/19 00:38:29;;;;;;;19.05;16.95;;;;;;;11.04;62.10;102537.63;5072227;28;20094;-66
2023/04/19 00:40:54;;;;;;;19.63;17.42;;;;;;;11.05;62.23;102533.75;5084143;28;20031;-66
2023/04/19 00:43:19;;;;;;;19.40;17.30;;;;;;;10.99;62.14;102531.84;5089879;28;20059;-66
2023/04/19 00:45:46;;;;;;;19.88;17.58;;;;;;;11.04;62.48;102531.19;5092254;28;20028;-66
2023/04/19 00:48:15;;;;;;;19.23;17.27;;;;;;;11.05;62.48;102532.91;5084528;28;20042;-66
2023/04/19 00:50:43;;;;;;;19.92;17.83;;;;;;;11.02;62.42;102528.63;5072438;28;20036;-66
2023/04/19 00:53:09;;;;;;;19.92;17.73;;;;;;;11.04;62.65;102534.84;5083326;28;20085;-66
2023/04/19 00:55:34;;;;;;;21.50;19.15;;;;;;;11.04;62.56;102526.50;5081331;28;20036;-66
2023/04/19 00:58:00;;;;;;;22.98;17.95;;;;;;;11.03;62.69;102521.16;5084889;28;20028;-66
2023/04/19 01:00:25;;;;;;;18.95;17.05;;;;;;;11.06;62.62;102531.84;5080275;28;20478;-66
2023/04/19 01:02:51;;;;;;;18.95;17.02;;;;;;;11.06;62.52;102527.13;5083048;28;20047;-66
2023/04/19 01:05:16;;;;;;;19.35;17.15;;;;;;;11.11;62.54;102525.63;5086261;28;20039;-66
2023/04/19 01:07:42;;;;;;;21.63;18.17;;;;;;;11.12;62.49;102521.75;5091206;28;20039;-66
2023/04/19 01:10:08;;;;;;;20.27;18.08;;;;;;;11.09;62.61;102527.78;5076445;28;20116;-66
2023/04/19 01:12:33;;;;;;;19.55;17.45;;;;;;;11.06;62.83;102521.56;5071995;28;20391;-66
2023/04/19 01:14:58;;;;;;;19.40;17.33;;;;;;;11.08;62.80;102521.34;5056947;28;20068;-66
2023/04/19 01:17:25;;;;;;;19.67;17.67;;;;;;;11.11;62.98;102525.63;5051508;28;20478;-66
2023/04/19 01:19:58;;;;;;;21.13;18.70;;;;;;;11.06;62.93;102524.34;5051528;28;20376;-66
2023/04/19 01:22:24;;;;;;;21.52;17.67;;;;;;;11.10;62.92;102530.34;5056413;28;20029;-67
2023/04/19 01:24:50;;;;;;;20.08;17.83;;;;;;;11.06;63.03;102521.56;5059716;28;20491;-67
2023/04/19 01:27:16;;;;;;;18.90;16.85;;;;;;;11.04;63.30;102523.72;5071172;28;20468;-66
2023/04/19 01:29:42;;;;;;;19.05;17.02;;;;;;;11.05;63.41;102525.44;5070922;28;20103;-67
2023/04/19 01:32:07;;;;;;;19.48;17.20;;;;;;;11.05;63.28;102528.22;5064516;28;20656;-66
2023/04/19 01:34:32;;;;;;;20.98;17.45;;;;;;;11.05;63.47;102522.66;5052153;28;20033;-67
2023/04/19 01:36:57;;;;;;;22.55;17.15;;;;;;;11.05;63.43;102528.22;5050661;28;20041;-67
2023/04/19 01:39:24;;;;;;;20.27;17.20;;;;;;;11.08;63.46;102529.69;5055687;28;20467;-66
2023/04/19 01:41:50;;;;;;;19.13;17.05;;;;;;;11.09;63.26;102525.84;5067298;28;20494;-66
2023/04/19 01:44:15;;;;;;;22.48;17.75;;;;;;;11.14;63.54;102519.66;5070346;28;20032;-67
2023/04/19 01:46:41;;;;;;;24.02;18.40;;;;;;;11.14;63.50;102520.50;5070836;28;20110;-67
2023/04/19 01:49:07;;;;;;;19.75;17.67;;;;;;;11.15;63.47;102519.41;5061963;28;20106;-67
2023/04/19 01:51:32;;;;;;;18.70;16.63;;;;;;;11.17;64.03;102520.06;5056772;28;20399;-66
2023/04/19 01:53:58;;;;;;;19.20;16.83;;;;;;;11.17;63.59;102514.50;5063872;28;20044;-66
2023/04/19 01:56:23;;;;;;;23.15;17.88;;;;;;;11.14;64.00;102520.50;5060422;28;20032;-67
2023/04/19 01:58:48;;;;;;;22.45;17.65;;;;;;;11.14;63.90;102516.88;5062399;28;20112;-67
2023/04/19 02:01:13;;;;;;;21.95;17.95;;;;;;;11.13;64.11;102512.38;5052760;28;20033;-66
2023/04/19 02:03:39;;;;;;;22.27;17.50;;;;;;;11.15;63.77;102515.78;5064500;28;20052;-66
2023/04/19 02:06:04;;;;;;;23.42;18.15;;;;;;;11.16;63.99;102506.38;5068638;28;20074;-66
2023/04/19 02:08:30;;;;;;;20.50;17.33;;;;;;;11.12;64.21;102505.09;5066536;28;20028;-66
2023/04/19 02:10:55;;;;;;;20.90;17.60;;;;;;;11.15;64.16;102499.09;5052730;28;20028;-66
2023/04/19 02:13:21;;;;;;;21.25;17.40;;;;;;;11.15;64.36;102493.56;5061925;28;20024;-66
2023/04/19 02:15:46;;;;;;;19.92;16.48;;;;;;;11.16;64.18;102507.25;5076311;28;20490;-66
2023/04/19 02:18:12;;;;;;;21.85;17.65;;;;;;;11.17;64.17;102489.50;5088555;28;20468;-66
2023/04/19 02:20:37;;;;;;;22.55;17.70;;;;;;;11.19;64.41;102487.34;5078988;28;20039;-66
2023/04/19 02:23:03;;;;;;;23.42;17.77;;;;;;;11.16;64.69;102490.56;5080102;28;20036;-66
2023/04/19 02:25:28;;;;;;;24.70;17.73;;;;;;;11.17;64.69;102491.44;5080317;28;20500;-66
2023/04/19 02:27:53;;;;;;;21.38;17.92;;;;;;;11.17;64.79;102489.50;5072104;28;20355;-66
2023/04/19 02:30:19;;;;;;;21.05;18.00;;;;;;;11.17;64.80;102489.50;5080861;28;20479;-66
2023/04/19 02:32:47;;;;;;;21.95;17.38;;;;;;;11.19;65.03;102489.25;5088651;28;20042;-66
2023/04/19 02:35:12;;;;;;;21.65;17.63;;;;;;;11.21;64.94;102503.81;5084925;28;20271;-66
2023/04/19 02:37:37;;;;;;;21.67;17.60;;;;;;;11.22;65.23;102494.41;5077232;28;20591;-65
2023/04/19 02:40:04;;;;;;;23.45;17.45;;;;;;;11.25;64.91;102500.38;5078607;28;20037;-66
2023/04/19 02:42:29;;;;;;;21.30;17.80;;;;;;;11.26;64.91;102495.66;5083158;28;20032;-66
2023/04/19 02:44:54;;;;;;;21.67;18.02;;;;;;;11.25;65.09;102494.81;5085268;28;20036;-66
2023/04/19 02:47:20;;;;;;;20.92;18.30;;;;;;;11.25;65.02;102494.81;5075820;28;20041;-67
2023/04/19 02:49:45;;;;;;;21.73;17.67;;;;;;;11.25;65.44;102493.97;5084646;28;20063;-66
2023/04/19 02:52:11;;;;;;;21.73;17.83;;;;;;;11.25;65.32;102491.19;5085149;28;20037;-67
2023/04/19 02:54:36;;;;;;;23.23;17.25;;;;;;;11.28;65.10;102499.94;5069068;28;20060;-66
2023/04/19 02:57:01;;;;;;;21.52;17.95;;;;;;;11.25;65.08;102502.31;5073672;28;20410;-66
2023/04/19 02:59:27;;;;;;;22.75;17.70;;;;;;;11.26;65.45;102495.66;5080223;28;20052;-66
2023/04/19 03:01:52;;;;;;;19.13;16.98;;;;;;;11.26;65.47;102501.22;5075624;28;20046;-65
2023/04/19 03:04:17;;;;;;;23.48;17.42;;;;;;;11.24;65.54;102503.38;5088352;28;20059;-66
2023/04/19 03:06:43;;;;;;;20.58;16.08;;;;;;;11.24;65.34;102501.47;5089236;28;20069;-66
2023/04/19 03:09:09;;;;;;;19.10;16.42;;;;;;;11.20;65.57;102502.09;5076410;28;20415;-66
2023/04/19 03:11:34;;;;;;;21.40;17.17;;;;;;;11.20;65.46;102493.75;5077091;28;20479;-66
2023/04/19 03:13:59;;;;;;;20.73;17.27;;;;;;;11.20;65.41;102496.53;5078844;28;20491;-66
2023/04/19 03:16:25;;;;;;;22.17;16.67;;;;;;;11.21;65.64;102503.81;5090205;28;20048;-66
2023/04/19 03:18:50;;;;;;;19.55;16.40;;;;;;;11.19;66.14;102494.81;5072410;28;20044;-67
2023/04/19 03:21:16;;;;;;;20.60;16.75;;;;;;;11.22;66.04;102491.63;5069665;28;20032;-66
2023/04/19 03:23:41;;;;;;;21.42;16.40;;;;;;;11.23;66.00;102494.16;5076620;28;20452;-67
2023/04/19 03:26:06;;;;;;;20.23;16.25;;;;;;;11.23;65.54;102490.53;5090338;28;20020;-66
2023/04/19 03:28:31;;;;;;;21.65;17.00;;;;;;;11.21;65.98;102485.22;5080700;28;20016;-66
2023/04/19 03:30:57;;;;;;;20.38;16.33;;;;;;;11.15;66.17;102497.19;5080489;28;20047;-67
2023/04/19 03:33:22;;;;;;;18.52;15.52;;;;;;;11.15;66.14;102482.44;5080696;28;20355;-66
2023/04/19 03:35:47;;;;;;;18.92;16.55;;;;;;;11.09;66.22;102477.75;5093255;28;20058;-66
2023/04/19 03:38:13;;;;;;;19.35;16.42;;;;;;;11.08;66.16;102488.00;5074882;28;20507;-66
2023/04/19 03:40:38;;;;;;;17.90;16.00;;;;;;;11.11;66.20;102478.38;5086782;28;20040;-68
2023/04/19 03:43:03;;;;;;;19.25;17.20;;;;;;;11.09;66.20;102481.38;5092591;28;20020;-67
2023/04/19 03:45:29;;;;;;;18.95;15.60;;;;;;;11.10;66.22;102483.09;5093776;28;20172;-67
2023/04/19 03:47:54;;;;;;;19.40;16.15;;;;;;;11.05;66.04;102483.75;5088846;28;20074;-66
2023/04/19 03:50:19;;;;;;;19.58;15.63;;;;;;;11.03;66.12;102476.69;5072866;28;20028;-67
2023/04/19 03:52:45;;;;;;;18.60;16.10;;;;;;;11.00;66.26;102482.66;5073394;28;20429;-67
2023/04/19 03:55:11;;;;;;;17.50;15.25;;;;;;;11.03;66.29;102485.03;5078919;28;20033;-67
2023/04/19 03:57:37;;;;;;;18.10;15.02;;;;;;;10.99;66.71;102489.31;5083581;28;20416;-67
2023/04/19 04:00:06;;;;;;;18.85;15.82;;;;;;;10.97;66.74;102483.13;5092744;28;20118;-67
2023/04/19 04:02:31;;;;;;;18.25;15.70;;;;;;;11.00;66.73;102486.34;5093500;28;20482;-66
2023/04/19 04:04:57;;;;;;;19.48;15.60;;;;;;;10.97;66.50;102486.75;5086624;28;20068;-66
2023/04/19 04:07:23;;;;;;;18.60;15.30;;;;;;;11.00;66.47;102489.09;5073422;28;20492;-66
2023/04/19 04:09:48;;;;;;;20.58;15.27;;;;;;;10.99;66.30;102486.53;5073504;28;20472;-66
2023/04/19 04:12:14;;;;;;;16.63;14.50;;;;;;;10.97;66.30;102489.53;5091032;28;20039;-66
2023/04/19 04:14:39;;;;;;;15.73;13.65;;;;;;;10.98;66.10;102488.47;5093066;28;20048;-67
2023/04/19 04:17:05;;;;;;;17.17;14.23;;;;;;;11.01;66.20;102487.19;5093098;28;20099;-66
2023/04/19 04:19:30;;;;;;;19.58;14.32;;;;;;;10.97;66.12;102481.19;5092177;28;20329;-67
2023/04/19 04:21:58;;;;;;;18.55;14.18;;;;;;;10.98;66.34;102482.91;5091641;28;20026;-67
2023/04/19 04:24:23;;;;;;;18.23;14.15;;;;;;;11.00;65.93;102489.09;5084910;28;20043;-67
2023/04/19 04:26:50;;;;;;;17.58;14.38;;;;;;;10.96;65.90;102490.56;5075372;28;20036;-67
2023/04/19 04:29:16;;;;;;;16.38;14.68;;;;;;;10.96;65.81;102487.81;5073728;28;20028;-68
2023/04/19 04:31:41;;;;;;;16.70;14.07;;;;;;;10.94;65.93;102492.75;5075590;28;20175;-67
2023/04/19 04:34:08;;;;;;;15.25;13.65;;;;;;;10.86;66.14;102487.41;5087386;28;20453;-66
2023/04/19 04:36:34;;;;;;;16.85;14.30;;;;;;;10.85;65.94;102494.03;5093099;28;20062;-67
2023/04/19 04:39:00;;;;;;;15.48;13.70;;;;;;;10.85;66.04;102494.03;5086783;28;20024;-67
2023/04/19 04:41:26;;;;;;;18.00;13.98;;;;;;;10.81;66.00;102493.63;5071567;28;20052;-66
2023/04/19 04:43:52;;;;;;;16.73;13.68;;;;;;;10.81;65.89;102498.31;5080477;28;20089;-67
2023/04/19 04:46:17;;;;;;;14.93;12.85;;;;;;;10.80;65.71;102493.81;5091624;28;20049;-66
2023/04/19 04:48:43;;;;;;;16.33;13.15;;;;;;;10.79;66.03;102497.66;5090913;28;20040;-66
2023/04/19 04:51:08;;;;;;;16.30;12.73;;;;;;;10.81;65.72;102498.31;5074345;28;20028;-67
2023/04/19 04:53:33;;;;;;;15.18;12.85;;;;;;;10.82;65.97;102497.25;5071613;28;20028;-67
2023/04/19 04:55:58;;;;;;;15.80;13.35;;;;;;;10.83;65.59;102496.16;5072350;28;20397;-67
2023/04/19 04:58:24;;;;;;;15.80;12.52;;;;;;;10.81;65.31;102510.28;5072191;28;20082;-67
2023/04/19 05:00:49;;;;;;;14.88;12.35;;;;;;;10.75;65.02;102508.34;5075013;28;20035;-67
2023/04/19 05:03:15;;;;;;;13.25;11.85;;;;;;;10.70;64.87;102507.28;5083655;28;20028;-66
2023/04/19 05:05:40;;;;;;;12.05;10.63;;;;;;;10.69;64.92;102511.09;5092034;28;20024;-67
2023/04/19 05:08:06;;;;;;;14.52;11.65;;;;;;;10.69;64.96;102502.78;5080094;28;20073;-66
2023/04/19 05:10:31;;;;;;;13.90;11.10;;;;;;;10.69;64.34;102505.56;5071980;28;20071;-66
2023/04/19 05:12:56;;;;;;;12.77;10.85;;;;;;;10.67;64.55;102510.50;5072341;28;20020;-66
2023/04/19 05:15:22;;;;;;;14.35;10.73;;;;;;;10.65;64.45;102518.16;5052968;28;20172;-66
2023/04/19 05:17:47;;;;;;;13.45;11.07;;;;;;;10.59;63.67;102511.53;5051026;28;20028;-66
2023/04/19 05:20:12;;;;;;;11.82;10.00;;;;;;;10.49;63.94;102511.97;5051653;28;20480;-66
2023/04/19 05:22:38;;;;;;;13.90;10.18;;;;;;;10.48;64.15;102521.34;5050477;28;20039;-65
2023/04/19 05:25:05;;;;;;;12.70;9.70;;;;;;;10.47;64.14;102516.03;5048913;28;20083;-65
2023/04/19 05:27:30;;;;;;;13.45;10.18;;;;;;;10.48;63.46;102513.03;5050977;28;20037;-65
2023/04/19 05:29:55;;;;;;;11.23;9.88;;;;;;;10.45;64.11;102518.16;5058442;28;20473;-65
2023/04/19 05:32:21;;;;;;;13.40;10.18;;;;;;;10.50;63.91;102518.38;5063720;28;20028;-65
2023/04/19 05:34:46;;;;;;;11.27;9.77;;;;;;;10.55;64.03;102522.22;5052559;28;20134;-66
2023/04/19 05:37:11;;;;;;;12.05;9.85;;;;;;;10.59;63.97;102522.66;5058560;28;20025;-66
2023/04/19 05:39:37;;;;;;;13.95;10.82;;;;;;;10.62;63.56;102521.38;5062356;28;20051;-66
2023/04/19 05:42:02;;;;;;;12.07;9.98;;;;;;;10.68;63.38;102520.50;5057482;28;20921;-66
2023/04/19 05:44:27;;;;;;;10.93;9.82;;;;;;;10.70;63.46;102522.03;5058884;28;20041;-66
2023/04/19 05:46:53;;;;;;;11.68;10.15;;;;;;;10.73;63.49;102518.81;5066527;28;20809;-65
2023/04/19 05:49:18;;;;;;;12.15;10.13;;;;;;;10.70;63.39;102513.69;5050641;28;20051;-66
2023/04/19 05:51:43;;;;;;;12.82;9.90;;;;;;;10.68;63.26;102517.75;5057784;28;20058;-66
2023/04/19 05:54:11;;;;;;;11.48;9.93;;;;;;;10.66;63.11;102515.19;5050200;28;20031;-64
2023/04/19 05:56:37;;;;;;;14.00;10.63;;;;;;;10.63;63.14;102517.53;5049779;28;20029;-64
2023/04/19 05:59:02;;;;;;;12.18;9.73;;;;;;;10.62;63.31;102527.78;5048813;28;20039;-66
2023/04/19 06:01:28;;;;;;;12.15;10.25;;;;;;;10.63;63.12;102517.53;5049348;28;20017;-65
2023/04/19 06:03:53;;;;;;;12.93;10.65;;;;;;;10.63;62.97;102523.94;5057803;28;20035;-68
2023/04/19 06:06:21;;;;;;;12.55;10.65;;;;;;;10.57;62.95;102520.09;5069019;28;20161;-66
2023/04/19 06:08:46;;;;;;;16.08;10.73;;;;;;;10.57;62.82;102522.00;5048003;28;20040;-65
2023/04/19 06:11:13;;;;;;;13.93;10.52;;;;;;;10.54;62.73;102530.78;5052734;28;20037;-65
2023/04/19 06:13:38;;;;;;;14.10;10.98;;;;;;;10.56;62.83;102529.47;5069130;28;20048;-66
2023/04/19 06:16:04;;;;;;;10.93;9.55;;;;;;;10.57;62.28;102530.31;5076215;28;20661;-66
2023/04/19 06:18:30;;;;;;;13.85;10.02;;;;;;;10.57;62.17;102530.31;5071946;28;20027;-66
2023/04/19 06:20:55;;;;;;;11.93;9.73;;;;;;;10.56;62.14;102531.41;5070461;28;20031;-66
2023/04/19 06:23:20;;;;;;;10.43;9.43;;;;;;;10.60;61.91;102532.69;5086893;28;20447;-66
2023/04/19 06:25:48;;;;;;;11.90;9.98;;;;;;;10.65;61.79;102524.59;5084316;28;20504;-67
2023/04/19 06:28:14;;;;;;;11.93;9.50;;;;;;;10.63;60.74;102526.72;5090293;28;20047;-67
2023/04/19 06:30:39;;;;;;;10.90;9.07;;;;;;;10.63;60.45;102520.31;5083333;28;20876;-67
2023/04/19 06:33:05;;;;;;;10.57;9.10;;;;;;;10.61;60.20;102525.22;5069483;28;20033;-64
2023/04/19 06:35:31;;;;;;;10.88;9.48;;;;;;;10.61;60.02;102525.22;5070501;28;20021;-68
2023/04/19 06:37:56;;;;;;;10.20;8.55;;;;;;;10.61;59.71;102522.44;5086767;28;20032;-68
2023/04/19 06:40:21;;;;;;;10.15;8.63;;;;;;;10.65;59.39;102518.16;5070950;28;20036;-67
2023/04/19 06:42:47;;;;;;;11.50;8.90;;;;;;;10.66;58.61;102517.97;5069177;28;20031;-68
2023/04/19 06:45:13;;;;;;;11.40;9.70;;;;;;;10.72;58.68;102516.25;5069203;28;20036;-67
2023/04/19 06:47:39;;;;;;;10.10;9.10;;;;;;;10.84;58.17;102511.75;5068962;28;20110;-67
2023/04/19 06:50:05;;;;;;;10.02;9.00;;;;;;;10.98;57.83;102509.84;5069200;28;20435;-67
2023/04/19 06:52:30;;;;;;;12.52;9.07;;;;;;;11.02;56.61;102520.28;5070683;28;20036;-68
2023/04/19 06:54:56;;;;;;;9.82;8.55;;;;;;;11.05;56.37;102519.88;5074028;28;20123;-68
2023/04/19 06:57:21;;;;;;;8.95;8.05;;;;;;;11.09;55.70;102511.97;5070034;28;20387;-67
2023/04/19 06:59:46;;;;;;;10.85;9.02;;;;;;;11.16;55.36;102517.47;5069057;28;20467;-67
2023/04/19 07:02:11;;;;;;;10.70;8.63;;;;;;;11.23;55.79;102515.56;5069420;28;20032;-68
2023/04/19 07:04:37;;;;;;;10.25;8.00;;;;;;;11.32;54.93;102517.06;5070444;28;20025;-68
2023/04/19 07:07:02;;;;;;;13.02;8.52;;;;;;;11.37;54.76;102521.94;5072851;28;20739;-68
2023/04/19 07:09:28;;;;;;;10.90;8.43;;;;;;;11.44;53.92;102523.66;5075445;28;20495;-68
2023/04/19 07:11:53;;;;;;;9.40;8.32;;;;;;;11.51;54.02;102527.25;5073535;28;20521;-67
2023/04/19 07:14:19;;;;;;;9.15;7.90;;;;;;;11.53;53.17;102525.09;5073135;28;20127;-67
2023/04/19 07:16:45;;;;;;;9.20;7.80;;;;;;;11.55;53.04;102528.53;5073309;28;20025;-67
2023/04/19 07:19:11;;;;;;;10.02;8.02;;;;;;;11.62;53.45;102525.72;5073386;28;20020;-68
2023/04/19 07:21:39;;;;;;;9.88;8.07;;;;;;;11.69;53.18;102525.69;5073058;28;20032;-68
2023/04/19 07:24:05;;;;;;;9.07;7.47;;;;;;;11.72;52.24;102522.47;5073765;28;20024;-68
2023/04/19 07:26:31;;;;;;;10.43;7.88;;;;;;;11.76;52.04;102521.81;5073422;28;20031;-68
2023/04/19 07:28:57;;;;;;;9.15;7.95;;;;;;;11.77;51.41;102525.44;5078163;28;20054;-68
2023/04/19 07:31:23;;;;;;;9.93;7.50;;;;;;;11.84;52.16;102520.75;5073352;28;20041;-68
2023/04/19 07:33:49;;;;;;;11.13;8.23;;;;;;;11.92;51.94;102511.28;5072872;28;20032;-68
2023/04/19 07:36:16;;;;;;;9.30;7.68;;;;;;;11.96;50.56;102518.13;5083193;28;20020;-68
2023/04/19 07:38:42;;;;;;;11.27;7.40;;;;;;;12.02;50.83;102514.44;5092668;28;20402;-68
2023/04/19 07:41:07;;;;;;;9.25;7.70;;;;;;;12.11;50.17;102512.28;5092784;28;20035;-68
2023/04/19 07:43:33;;;;;;;9.82;7.88;;;;;;;12.22;50.51;102512.41;5092586;28;20129;-67
2023/04/19 07:45:59;;;;;;;11.52;7.88;;;;;;;12.32;50.74;102516.63;5076299;28;20025;-68
2023/04/19 07:48:24;;;;;;;9.85;7.43;;;;;;;12.42;50.15;102512.28;5072489;28;20021;-67
2023/04/19 07:50:49;;;;;;;10.23;7.53;;;;;;;12.46;49.37;102513.53;5075573;28;20028;-67
2023/04/19 07:53:15;;;;;;;13.57;8.10;;;;;;;12.50;49.21;102502.81;5094173;28;20085;-68
2023/04/19 07:55:40;;;;;;;10.32;7.72;;;;;;;12.59;49.35;102514.50;5092061;28;20410;-68
2023/04/19 07:58:06;;;;;;;8.80;7.65;;;;;;;12.62;48.40;102505.72;5092867;28;20035;-68
2023/04/19 08:00:33;;;;;;;9.55;7.90;;;;;;;12.69;48.98;102503.69;5092632;28;20028;-68
2023/04/19 08:02:59;;;;;;;9.40;7.43;;;;;;;12.73;48.45;102505.81;5092294;28;20028;-68
2023/04/19 08:05:25;;;;;;;11.38;7.63;;;;;;;12.76;47.60;102510.06;5090832;28;20386;-68
2023/04/19 08:07:51;;;;;;;8.63;7.30;;;;;;;12.78;47.80;102505.13;5073608;28;20032;-67
2023/04/19 08:10:17;;;;;;;10.40;6.93;;;;;;;12.86;47.46;102504.00;5071803;28;20031;-68
2023/04/19 08:12:42;;;;;;;8.50;7.28;;;;;;;12.87;47.30;102498.19;5072012;28;20093;-68
2023/04/19 08:15:08;;;;;;;9.73;7.35;;;;;;;12.98;47.26;102507.75;5071709;28;20059;-69
2023/04/19 08:17:34;;;;;;;11.07;7.90;;;;;;;13.06;47.15;102506.59;5071047;28;20028;-68
2023/04/19 08:20:01;;;;;;;9.05;7.43;;;;;;;13.17;47.54;102501.13;5071687;28;20053;-68
2023/04/19 08:22:27;;;;;;;10.35;7.97;;;;;;;13.22;46.68;102495.69;5071428;28;20383;-68
2023/04/19 08:24:52;;;;;;;7.78;7.00;;;;;;;13.31;45.85;102504.63;5071093;28;20051;-69
2023/04/19 08:27:18;;;;;;;10.68;7.38;;;;;;;13.33;45.80;102501.63;5072578;28;20139;-69
2023/04/19 08:29:44;;;;;;;8.68;7.18;;;;;;;13.31;45.48;102499.06;5071734;28;20020;-68
2023/04/19 08:32:11;;;;;;;10.75;7.50;;;;;;;13.35;46.04;102496.66;5079963;28;20020;-68
2023/04/19 08:34:37;;;;;;;8.45;7.10;;;;;;;13.42;45.61;102497.44;5071281;28;20477;-68
2023/04/19 08:37:03;;;;;;;8.70;6.70;;;;;;;13.51;45.75;102496.88;5086769;28;20038;-68
2023/04/19 08:39:33;;;;;;;9.60;7.50;;;;;;;13.51;44.63;102491.31;5089685;28;20040;-68
2023/04/19 08:42:07;;;;;;;9.32;7.90;;;;;;;13.58;44.60;102496.81;5083546;28;20383;-68
2023/04/19 08:44:32;;;;;;;10.55;6.93;;;;;;;13.67;44.93;102489.81;5082149;28;20063;-68
2023/04/19 08:46:59;;;;;;;10.65;7.38;;;;;;;13.79;43.83;102494.63;5071735;28;20048;-68
2023/04/19 08:49:26;;;;;;;7.32;6.53;;;;;;;13.86;43.75;102487.88;5071460;28;20032;-68
2023/04/19 08:51:52;;;;;;;8.23;6.70;;;;;;;13.92;43.39;102478.56;5075302;28;20510;-68
2023/04/19 08:54:18;;;;;;;14.13;7.28;;;;;;;14.00;43.64;102472.66;5090813;28;20041;-68
2023/04/19 08:56:44;;;;;;;8.52;7.05;;;;;;;14.13;43.83;102467.94;5091139;28;20064;-68
2023/04/19 08:59:09;;;;;;;7.90;6.90;;;;;;;14.21;42.55;102484.38;5090888;28;20024;-68
2023/04/19 09:01:34;;;;;;;9.40;7.20;;;;;;;14.23;42.46;102474.69;5091330;28;20471;-68
2023/04/19 09:04:00;;;;;;;9.10;7.05;;;;;;;14.24;42.06;102478.31;5091525;28;20028;-68
2023/04/19 09:06:26;;;;;;;8.75;7.68;;;;;;;14.30;42.19;102479.28;5090594;28;20020;-69
2023/04/19 09:08:57;;;;;;;8.60;6.88;;;;;;;14.35;41.96;102471.06;5088931;28;20016;-68
2023/04/19 09:11:37;;;;;;;9.55;6.78;;;;;;;14.40;42.88;102477.63;5084326;28;20107;-68
2023/04/19 09:14:15;;;;;;;11.07;6.40;;;;;;;14.46;42.04;102476.69;5090572;28;20039;-68
2023/04/19 09:16:42;;;;;;;8.82;6.00;;;;;;;14.41;40.17;102479.31;5090849;28;20035;-68
2023/04/19 09:19:15;;;;;;;8.80;5.47;;;;;;;14.42;40.03;102472.66;5091079;28;20480;-69
2023/04/19 09:21:41;;;;;;;8.43;5.45;;;;;;;14.39;39.31;102483.47;5090012;28;20024;-68
2023/04/19 09:24:06;;;;;;;6.60;5.82;;;;;;;14.31;39.22;102476.28;5090985;28;20030;-69
2023/04/19 09:26:32;;;;;;;6.82;5.35;;;;;;;14.30;39.70;102479.28;5084617;28;20020;-69
2023/04/19 09:29:03;;;;;;;6.65;5.40;;;;;;;14.31;39.15;102476.28;5083818;28;20450;-69
2023/04/19 09:31:30;;;;;;;10.80;5.82;;;;;;;14.39;40.07;102475.94;5090654;28;20035;-69
2023/04/19 09:33:55;;;;;;;7.78;5.75;;;;;;;14.42;39.66;102471.78;5090168;28;20864;-69
2023/04/19 09:36:30;;;;;;;8.05;4.95;;;;;;;14.44;39.35;102480.78;5090801;28;20103;-69
2023/04/19 09:38:56;;;;;;;7.63;5.18;;;;;;;14.42;38.65;102481.06;5090954;28;20044;-69
2023/04/19 09:41:21;;;;;;;6.60;4.90;;;;;;;14.47;38.91;102483.97;5089126;28;20104;-69
2023/04/19 09:43:47;;;;;;;7.10;4.90;;;;;;;14.47;38.00;102475.59;5073313;28;20116;-69
2023/04/19 09:46:34;;;;;;;5.20;4.70;;;;;;;14.49;38.96;102484.59;5075226;28;20027;-69
2023/04/19 09:49:15;;;;;;;6.53;4.63;;;;;;;14.48;38.80;102477.28;5090076;28;20107;-69
2023/04/19 09:51:41;;;;;;;5.88;4.43;;;;;;;14.49;37.87;102473.41;5086379;28;20028;-69
2023/04/19 09:54:11;;;;;;;5.32;4.65;;;;;;;14.48;37.18;102473.63;5070306;28;20344;-69
2023/04/19 09:56:37;;;;;;;13.07;5.20;;;;;;;14.47;37.78;102475.59;5069668;28;20133;-69
2023/04/19 09:59:04;;;;;;;5.22;4.32;;;;;;;14.49;37.70;102462.25;5070135;28;20024;-69
2023/04/19 10:01:41;;;;;;;5.57;4.47;;;;;;;14.53;38.42;102467.34;5070084;28;20096;-69
2023/04/19 10:04:09;;;;;;;9.65;5.20;;;;;;;14.48;37.68;102468.91;5075161;28;20047;-69
2023/04/19 10:06:35;;;;;;;6.50;4.60;;;;;;;14.51;37.90;102466.75;5083830;28;20067;-68
2023/04/19 10:09:03;;;;;;;7.68;3.85;;;;;;;14.49;36.45;102467.84;5079300;28;20090;-69
2023/04/19 10:11:39;;;;;;;6.40;4.20;;;;;;;14.54;35.92;102478.31;5075452;28;20372;-69
2023/04/19 10:14:08;;;;;;;4.85;4.18;;;;;;;14.51;35.07;102475.16;5067177;28;20506;-69
2023/04/19 10:16:35;;;;;;;10.57;4.60;;;;;;;14.48;35.85;102470.84;5068244;28;20086;-69
2023/04/19 10:19:03;;;;;;;5.88;4.35;;;;;;;14.55;37.42;102462.41;5070031;28;20032;-69
2023/04/19 10:21:29;;;;;;;7.40;4.10;;;;;;;14.60;36.28;102459.72;5069619;28;20391;-69
2023/04/19 10:23:56;;;;;;;7.00;4.40;;;;;;;14.54;34.98;102458.75;5059728;28;20032;-69
2023/04/19 10:26:21;;;;;;;10.02;4.78;;;;;;;14.54;35.68;102457.88;5049768;28;20116;-69
2023/04/19 10:28:47;;;;;;;7.72;3.83;;;;;;;14.53;36.09;102456.19;5049369;28;20128;-69
2023/04/19 10:31:13;;;;;;;6.15;3.78;;;;;;;14.53;35.40;102450.59;5049130;28;20037;-69
2023/04/19 10:33:39;;;;;;;6.78;3.92;;;;;;;14.52;35.55;102460.06;5049536;28;20050;-69
2023/04/19 10:36:09;;;;;;;4.47;3.30;;;;;;;14.49;34.25;102451.06;5049780;28;20052;-69
2023/04/19 10:38:36;;;;;;;5.13;3.17;;;;;;;14.39;32.25;102455.53;5048539;28;20028;-69
2023/04/19 10:41:02;;;;;;;8.73;3.17;;;;;;;14.36;33.93;102454.06;5059038;28;20112;-69
2023/04/19 10:43:33;;;;;;;6.07;3.45;;;;;;;14.41;34.18;102450.53;5049666;28;20450;-69
2023/04/19 10:46:20;;;;;;;6.28;2.90;;;;;;;14.49;35.60;102442.69;5048433;28;20052;-69
2023/04/19 10:49:07;;;;;;;4.22;2.85;;;;;;;14.57;34.99;102460.19;5049217;28;20035;-69
2023/04/19 10:51:35;;;;;;;4.65;3.00;;;;;;;14.59;34.11;102446.84;5064812;28;20054;-69
2023/04/19 10:54:01;;;;;;;6.97;2.88;;;;;;;14.60;32.63;102443.78;5069833;28;20421;-69
2023/04/19 10:56:32;;;;;;;7.70;2.60;;;;;;;14.66;33.81;102450.38;5061965;28;20037;-70
2023/04/19 10:59:01;;;;;;;4.43;2.50;;;;;;;14.69;33.51;102456.31;5051664;28;20037;-69
2023/04/19 11:01:39;;;;;;;5.30;2.50;;;;;;;14.76;34.10;102439.44;5049093;28;20051;-69
2023/04/19 11:04:05;;;;;;;5.00;2.30;;;;;;;14.76;31.48;102444.19;5049682;28;20052;-69
2023/04/19 11:06:32;;;;;;;5.93;2.15;;;;;;;14.75;31.51;102434.94;5048143;28;20029;-69
2023/04/19 11:08:58;;;;;;;5.47;2.55;;;;;;;14.70;31.28;102443.22;5059356;28;20514;-69
2023/04/19 11:11:27;;;;;;;6.03;2.45;;;;;;;14.72;32.29;102435.44;5063047;28;20056;-69